Time;durP1;ratioP1;P1;durP2;ratioP2;P2;SDS_P1;SDS_P2;PMS_P1;PMS_P2;Temp;Humidity;BMP_temperature;BMP_pressure;BME280_temperature;BME280_humidity;BME280_pressure;Samples;Min_cycle;Max_cycle;Signal;HPM_P1;HPM_P2
2024/02/25 00:00:56;;;;;;;7.10;2.15;;;;;;;;;;7418503;19;20240;-79
2024/02/25 00:03:40;;;;;;;;;;;;;;;;;;7420501;19;19910;-79
2024/02/25 00:06:26;;;;;;;4.03;2.00;;;;;;;;;;7414394;19;19921;-79
2024/02/25 00:09:13;;;;;;;2.35;1.80;;;;;;;;;;7414464;19;19918;-79
2024/02/25 00:12:00;;;;;;;4.70;2.42;;;;;;;;;;7411564;19;20332;-79
2024/02/25 00:14:44;;;;;;;4.53;2.53;;;;;;;;;;7412049;19;20336;-80
2024/02/25 00:17:30;;;;;;;5.75;2.35;;;;;;;;;;7413243;19;19927;-80
2024/02/25 00:20:17;;;;;;;2.53;1.67;;;;;;;;;;7413907;19;20241;-80
2024/02/25 00:23:04;;;;;;;3.20;1.80;;;;;;;;;;7419321;19;19996;-80
2024/02/25 00:25:53;;;;;;;3.92;2.00;;;;;;;;;;7422592;19;19925;-80
2024/02/25 00:28:37;;;;;;;;;;;;;;;;;;7426153;19;19982;-80
2024/02/25 00:31:26;;;;;;;2.13;1.77;;;;;;;;;;7429189;19;19918;-80
2024/02/25 00:34:12;;;;;;;3.30;2.00;;;;;;;;;;7431989;19;19934;-80
2024/02/25 00:37:01;;;;;;;3.15;1.90;;;;;;;;;;7431217;19;20240;-80
2024/02/25 00:39:51;;;;;;;3.03;1.77;;;;;;;;;;7426451;19;19925;-80
2024/02/25 00:42:37;;;;;;;4.22;1.88;;;;;;;;;;7427185;19;19929;-80
2024/02/25 00:45:24;;;;;;;6.50;2.08;;;;;;;;;;7430704;19;20526;-80
2024/02/25 00:48:08;;;;;;;;;;;;;;;;;;7428521;19;20365;-80
2024/02/25 00:50:52;;;;;;;4.03;1.83;;;;;;;;;;7422004;19;19918;-80
2024/02/25 00:53:39;;;;;;;4.78;2.08;;;;;;;;;;7422447;19;19942;-80
2024/02/25 00:56:26;;;;;;;7.32;1.92;;;;;;;;;;7423457;19;19977;-80
2024/02/25 00:59:12;;;;;;;4.72;1.98;;;;;;;;;;7423129;19;20249;-80
2024/02/25 01:01:59;;;;;;;3.78;1.77;;;;;;;;;;7424251;19;19914;-80
2024/02/25 01:04:45;;;;;;;3.70;1.75;;;;;;;;;;7433269;19;19921;-80
2024/02/25 01:07:32;;;;;;;3.78;1.98;;;;;;;;;;7433281;19;19910;-80
2024/02/25 01:10:16;;;;;;;8.07;2.53;;;;;;;;;;7433513;19;20365;-80
2024/02/25 01:13:03;;;;;;;4.43;2.13;;;;;;;;;;7429165;19;19946;-80
2024/02/25 01:15:50;;;;;;;4.22;2.38;;;;;;;;;;7435325;19;19910;-80
2024/02/25 01:18:37;;;;;;;3.10;1.95;;;;;;;;;;7431770;19;19922;-80
2024/02/25 01:21:21;;;;;;;;;;;;;;;;;;7430285;19;19917;-80
2024/02/25 01:24:08;;;;;;;2.42;1.50;;;;;;;;;;7429411;19;19922;-80
2024/02/25 01:26:55;;;;;;;2.85;1.77;;;;;;;;;;7428358;19;19915;-80
2024/02/25 01:29:44;;;;;;;3.30;2.10;;;;;;;;;;7429419;19;19923;-80
2024/02/25 01:32:28;;;;;;;2.72;1.48;;;;;;;;;;7423102;19;19925;-80
2024/02/25 01:35:13;;;;;;;;;;;;;;;;;;7423083;19;19937;-80
2024/02/25 01:37:57;;;;;;;1.90;1.38;;;;;;;;;;7422371;19;19939;-80
2024/02/25 01:40:45;;;;;;;1.88;1.33;;;;;;;;;;7425336;19;19974;-80
2024/02/25 01:43:33;;;;;;;3.45;1.65;;;;;;;;;;7421557;19;19947;-80
2024/02/25 01:46:20;;;;;;;1.95;1.48;;;;;;;;;;7421784;19;19915;-80
2024/02/25 01:49:09;;;;;;;3.15;1.80;;;;;;;;;;7426171;19;20247;-80
2024/02/25 01:51:56;;;;;;;2.38;1.67;;;;;;;;;;7423060;19;19925;-80
2024/02/25 01:54:43;;;;;;;2.85;1.60;;;;;;;;;;7416298;19;19927;-80
2024/02/25 01:57:30;;;;;;;3.08;1.83;;;;;;;;;;7416179;19;19911;-80
2024/02/25 02:00:16;;;;;;;3.35;1.98;;;;;;;;;;7420441;19;19947;-80
2024/02/25 02:03:03;;;;;;;4.93;2.20;;;;;;;;;;7416779;19;19922;-80
2024/02/25 02:05:49;;;;;;;3.83;1.80;;;;;;;;;;7417060;19;19915;-80
2024/02/25 02:08:37;;;;;;;3.97;2.05;;;;;;;;;;7420978;19;19918;-80
2024/02/25 02:11:23;;;;;;;3.10;1.80;;;;;;;;;;7420941;19;19919;-80
2024/02/25 02:14:08;;;;;;;3.28;1.92;;;;;;;;;;7418143;19;19918;-80
2024/02/25 02:16:52;;;;;;;2.40;1.80;;;;;;;;;;7420205;19;19919;-80
2024/02/25 02:19:39;;;;;;;;;;;;;;;;;;7421358;19;20230;-80
2024/02/25 02:22:26;;;;;;;2.40;1.58;;;;;;;;;;7421457;19;19942;-80
2024/02/25 02:25:11;;;;;;;3.42;1.90;;;;;;;;;;7421953;19;19914;-80
2024/02/25 02:27:58;;;;;;;6.00;2.38;;;;;;;;;;7416898;19;20293;-80
2024/02/25 02:30:42;;;;;;;2.72;1.58;;;;;;;;;;7421431;19;19926;-80
2024/02/25 02:33:26;;;;;;;;;;;;;;;;;;7421575;19;19932;-80
2024/02/25 02:36:11;;;;;;;4.90;1.25;;;;;;;;;;7416864;19;19931;-80
2024/02/25 02:39:00;;;;;;;3.97;2.33;;;;;;;;;;7418872;19;19915;-80
2024/02/25 02:41:46;;;;;;;2.17;1.80;;;;;;;;;;7418761;19;19910;-80
2024/02/25 02:44:30;;;;;;;2.60;1.40;;;;;;;;;;7418817;19;20336;-80
2024/02/25 02:47:14;;;;;;;;;;;;;;;;;;7420359;19;19933;-80
2024/02/25 02:49:58;;;;;;;3.58;1.95;;;;;;;;;;7418202;19;19915;-80
2024/02/25 02:52:45;;;;;;;3.03;1.60;;;;;;;;;;7420682;19;19917;-80
2024/02/25 02:55:32;;;;;;;;;;;;;;;;;;7427636;19;19982;-80
2024/02/25 02:58:18;;;;;;;3.00;1.75;;;;;;;;;;7422472;19;19923;-80
2024/02/25 03:01:02;;;;;;;;;;;;;;;;;;7431744;19;20289;-80
2024/02/25 03:03:46;;;;;;;1.85;1.10;;;;;;;;;;7429829;19;19914;-80
2024/02/25 03:06:35;;;;;;;3.47;2.05;;;;;;;;;;7426429;19;19941;-80
2024/02/25 03:09:22;;;;;;;2.97;1.33;;;;;;;;;;7426168;19;20024;-80
2024/02/25 03:12:09;;;;;;;2.90;1.80;;;;;;;;;;7425979;19;19913;-80
2024/02/25 03:14:55;;;;;;;2.30;1.52;;;;;;;;;;7424070;19;19950;-80
2024/02/25 03:17:42;;;;;;;2.40;1.23;;;;;;;;;;7422903;19;19923;-80
2024/02/25 03:20:29;;;;;;;4.15;1.73;;;;;;;;;;7422146;19;19913;-80
2024/02/25 03:23:16;;;;;;;3.75;1.60;;;;;;;;;;7424897;19;19926;-80
2024/02/25 03:26:00;;;;;;;2.00;1.27;;;;;;;;;;7427219;19;19914;-80
2024/02/25 03:28:50;;;;;;;2.25;1.40;;;;;;;;;;7423748;19;19914;-80
2024/02/25 03:31:34;;;;;;;2.80;1.65;;;;;;;;;;7422883;19;19919;-80
2024/02/25 03:34:20;;;;;;;2.15;1.60;;;;;;;;;;7426077;19;19911;-80
2024/02/25 03:37:07;;;;;;;3.05;1.75;;;;;;;;;;7421227;19;20348;-80
2024/02/25 03:39:51;;;;;;;;;;;;;;;;;;7428780;19;19918;-80
2024/02/25 03:42:37;;;;;;;2.08;1.55;;;;;;;;;;7419485;19;19929;-80
2024/02/25 03:45:26;;;;;;;2.80;1.80;;;;;;;;;;7422905;19;19927;-80
2024/02/25 03:48:11;;;;;;;2.63;1.50;;;;;;;;;;7419352;19;19918;-82
2024/02/25 03:50:55;;;;;;;6.07;1.88;;;;;;;;;;7424072;19;20530;-81
2024/02/25 03:53:39;;;;;;;;;;;;;;;;;;7426807;19;19955;-81
2024/02/25 03:56:24;;;;;;;2.80;1.40;;;;;;;;;;7422498;19;19919;-81
2024/02/25 03:59:13;;;;;;;2.55;1.65;;;;;;;;;;7423265;19;19906;-81
2024/02/25 04:02:00;;;;;;;2.70;1.73;;;;;;;;;;7424016;19;19922;-81
2024/02/25 04:04:46;;;;;;;5.22;2.10;;;;;;;;;;7423177;19;19946;-82
2024/02/25 04:07:30;;;;;;;3.95;2.03;;;;;;;;;;7423358;19;19926;-82
2024/02/25 04:10:15;;;;;;;3.70;1.50;;;;;;;;;;7423232;19;19926;-83
2024/02/25 04:13:03;;;;;;;3.65;1.60;;;;;;;;;;7423656;19;19922;-84
2024/02/25 04:15:49;;;;;;;2.65;1.60;;;;;;;;;;7422029;19;19919;-82
2024/02/25 04:18:38;;;;;;;2.95;1.55;;;;;;;;;;7423380;19;19923;-82
2024/02/25 04:21:27;;;;;;;6.03;2.10;;;;;;;;;;7422706;19;20278;-81
2024/02/25 04:24:12;;;;;;;6.78;1.77;;;;;;;;;;7422369;19;19918;-81
2024/02/25 04:26:58;;;;;;;2.58;1.60;;;;;;;;;;7423495;19;20314;-81
2024/02/25 04:29:43;;;;;;;;;;;;;;;;;;7423824;19;19919;-81
2024/02/25 04:32:29;;;;;;;4.55;2.35;;;;;;;;;;7422005;19;19918;-81
2024/02/25 04:35:19;;;;;;;2.00;1.33;;;;;;;;;;7421491;19;19929;-81
2024/02/25 04:38:05;;;;;;;3.03;1.27;;;;;;;;;;7420117;19;19915;-81
2024/02/25 04:40:53;;;;;;;2.28;1.52;;;;;;;;;;7420289;19;19915;-81
2024/02/25 04:43:39;;;;;;;3.42;2.20;;;;;;;;;;7421748;19;19922;-81
2024/02/25 04:46:28;;;;;;;2.60;1.50;;;;;;;;;;7421237;19;19922;-82
2024/02/25 04:49:18;;;;;;;2.47;1.20;;;;;;;;;;7424349;19;19918;-81
2024/02/25 04:52:10;;;;;;;2.30;1.48;;;;;;;;;;7422169;19;19943;-81
2024/02/25 04:54:57;;;;;;;3.13;1.60;;;;;;;;;;7419905;19;19919;-81
2024/02/25 04:57:42;;;;;;;1.80;1.33;;;;;;;;;;7421075;19;19914;-81
2024/02/25 05:00:26;;;;;;;;;;;;;;;;;;7422192;19;19907;-82
2024/02/25 05:03:12;;;;;;;3.20;1.40;;;;;;;;;;7420109;19;19911;-83
2024/02/25 05:05:59;;;;;;;2.90;1.50;;;;;;;;;;7421007;19;19979;-82
2024/02/25 05:08:48;;;;;;;2.05;1.15;;;;;;;;;;7422835;19;19923;-82
2024/02/25 05:11:33;;;;;;;2.70;1.65;;;;;;;;;;7420881;19;20352;-82
2024/02/25 05:14:22;;;;;;;4.25;1.40;;;;;;;;;;7421182;19;19919;-82
2024/02/25 05:17:09;;;;;;;2.72;1.33;;;;;;;;;;7419885;19;19911;-82
2024/02/25 05:19:53;;;;;;;2.85;1.60;;;;;;;;;;7420899;19;19933;-82
2024/02/25 05:22:40;;;;;;;4.53;1.30;;;;;;;;;;7420440;19;20357;-83
2024/02/25 05:25:29;;;;;;;3.72;1.60;;;;;;;;;;7419439;19;20344;-83
2024/02/25 05:28:22;;;;;;;2.40;1.50;;;;;;;;;;7419706;19;20415;-83
2024/02/25 05:31:09;;;;;;;1.80;1.50;;;;;;;;;;7418732;19;19914;-82
2024/02/25 05:33:53;;;;;;;2.80;1.52;;;;;;;;;;7419717;19;19931;-82
2024/02/25 05:36:40;;;;;;;3.03;1.60;;;;;;;;;;7419378;19;20269;-82
2024/02/25 05:39:26;;;;;;;2.33;1.33;;;;;;;;;;7418687;19;20384;-82
2024/02/25 05:42:15;;;;;;;2.38;1.35;;;;;;;;;;7420014;19;20317;-82
2024/02/25 05:45:02;;;;;;;2.80;1.45;;;;;;;;;;7416811;19;19925;-82
2024/02/25 05:47:49;;;;;;;3.13;1.80;;;;;;;;;;7416783;19;19911;-82
2024/02/25 05:50:36;;;;;;;3.50;1.65;;;;;;;;;;7418027;19;19921;-81
2024/02/25 05:53:20;;;;;;;3.50;1.60;;;;;;;;;;7414873;19;20328;-82
2024/02/25 05:56:08;;;;;;;2.63;1.70;;;;;;;;;;7416634;19;19918;-82
2024/02/25 05:58:55;;;;;;;2.35;1.55;;;;;;;;;;7416373;19;19914;-82
2024/02/25 06:01:49;;;;;;;2.45;1.17;;;;;;;;;;7416159;19;19922;-82
2024/02/25 06:04:38;;;;;;;1.80;1.33;;;;;;;;;;7418137;19;19914;-82
2024/02/25 06:07:27;;;;;;;2.28;1.52;;;;;;;;;;7416674;19;19914;-82
2024/02/25 06:10:14;;;;;;;2.28;1.42;;;;;;;;;;7419139;19;20257;-82
2024/02/25 06:12:58;;;;;;;3.40;1.60;;;;;;;;;;7417436;19;19929;-82
2024/02/25 06:15:47;;;;;;;2.38;1.30;;;;;;;;;;7413816;19;19932;-82
2024/02/25 06:18:36;;;;;;;4.78;1.90;;;;;;;;;;7416786;19;19922;-81
2024/02/25 06:21:23;;;;;;;2.75;1.70;;;;;;;;;;7412613;19;20317;-80
2024/02/25 06:24:10;;;;;;;2.05;1.45;;;;;;;;;;7408548;19;19919;-81
2024/02/25 06:26:56;;;;;;;5.05;2.75;;;;;;;;;;7407706;19;19921;-80
2024/02/25 06:29:40;;;;;;;;;;;;;;;;;;7419512;19;20265;-80
2024/02/25 06:32:31;;;;;;;4.68;2.75;;;;;;;;;;7420301;19;19930;-80
2024/02/25 06:35:17;;;;;;;4.20;2.65;;;;;;;;;;7419382;19;19918;-80
2024/02/25 06:38:02;;;;;;;4.15;2.17;;;;;;;;;;7416483;19;20008;-80
2024/02/25 06:40:47;;;;;;;4.53;2.30;;;;;;;;;;7417609;19;19911;-80
2024/02/25 06:43:34;;;;;;;4.85;2.88;;;;;;;;;;7418961;19;19923;-80
2024/02/25 06:46:18;;;;;;;3.13;2.25;;;;;;;;;;7418747;19;20242;-80
2024/02/25 06:49:05;;;;;;;3.55;2.10;;;;;;;;;;7421028;19;20273;-80
2024/02/25 06:51:51;;;;;;;2.05;1.75;;;;;;;;;;7420653;19;19911;-80
2024/02/25 06:54:36;;;;;;;3.03;2.03;;;;;;;;;;7422738;19;19925;-80
2024/02/25 06:57:22;;;;;;;3.85;2.33;;;;;;;;;;7417744;19;19955;-80
2024/02/25 07:00:10;;;;;;;3.38;2.13;;;;;;;;;;7419099;19;20338;-80
2024/02/25 07:02:55;;;;;;;5.45;2.22;;;;;;;;;;7418553;19;19994;-80
2024/02/25 07:05:46;;;;;;;5.50;2.40;;;;;;;;;;7419795;19;19926;-80
2024/02/25 07:08:33;;;;;;;4.28;2.33;;;;;;;;;;7418559;19;19930;-80
2024/02/25 07:11:18;;;;;;;4.70;2.28;;;;;;;;;;7415681;19;19919;-80
2024/02/25 07:14:06;;;;;;;4.32;2.47;;;;;;;;;;7420342;19;19922;-80
2024/02/25 07:16:53;;;;;;;6.75;3.10;;;;;;;;;;7416397;19;20016;-81
2024/02/25 07:19:45;;;;;;;72.22;28.70;;;;;;;;;;7419596;19;19933;-81
2024/02/25 07:22:32;;;;;;;9.63;4.82;;;;;;;;;;7416142;19;19911;-81
2024/02/25 07:25:18;;;;;;;5.85;3.65;;;;;;;;;;7419808;19;19917;-81
2024/02/25 07:28:08;;;;;;;9.18;4.13;;;;;;;;;;7418060;19;20245;-81
2024/02/25 07:30:52;;;;;;;5.57;3.08;;;;;;;;;;7419237;19;19918;-81
2024/02/25 07:33:39;;;;;;;8.23;5.35;;;;;;;;;;7417570;19;19910;-81
2024/02/25 07:36:25;;;;;;;5.85;4.18;;;;;;;;;;7413373;19;19923;-81
2024/02/25 07:39:17;;;;;;;6.95;5.47;;;;;;;;;;7418165;19;19917;-81
2024/02/25 07:42:01;;;;;;;8.55;5.38;;;;;;;;;;7415940;19;19994;-81
2024/02/25 07:44:48;;;;;;;5.18;2.58;;;;;;;;;;7418312;19;20341;-81
2024/02/25 07:47:32;;;;;;;3.72;2.65;;;;;;;;;;7416466;19;19911;-81
2024/02/25 07:50:19;;;;;;;3.80;2.88;;;;;;;;;;7419363;19;19911;-80
2024/02/25 07:53:03;;;;;;;3.97;2.35;;;;;;;;;;7416977;19;20323;-80
2024/02/25 07:55:50;;;;;;;4.93;2.50;;;;;;;;;;7419893;19;20356;-80
2024/02/25 07:58:35;;;;;;;3.17;2.33;;;;;;;;;;7419838;19;19940;-80
2024/02/25 08:01:19;;;;;;;4.93;2.63;;;;;;;;;;7416279;19;19922;-80
2024/02/25 08:04:06;;;;;;;3.35;2.35;;;;;;;;;;7417194;19;19929;-81
2024/02/25 08:06:53;;;;;;;7.05;3.55;;;;;;;;;;7419012;19;19922;-80
2024/02/25 08:09:37;;;;;;;10.68;4.28;;;;;;;;;;7420511;19;19911;-80
2024/02/25 08:12:24;;;;;;;6.28;3.88;;;;;;;;;;7420361;19;19922;-81
2024/02/25 08:15:09;;;;;;;5.65;3.40;;;;;;;;;;7416841;19;19915;-80
2024/02/25 08:17:53;;;;;;;4.18;3.03;;;;;;;;;;7416549;19;19915;-80
2024/02/25 08:20:40;;;;;;;4.75;3.42;;;;;;;;;;7416741;19;20333;-80
2024/02/25 08:23:24;;;;;;;9.35;3.60;;;;;;;;;;7419504;19;19930;-80
2024/02/25 08:26:10;;;;;;;7.40;4.35;;;;;;;;;;7414298;19;20016;-80
2024/02/25 08:28:57;;;;;;;5.95;3.58;;;;;;;;;;7419410;19;19962;-80
2024/02/25 08:31:47;;;;;;;6.90;4.43;;;;;;;;;;7418676;19;19932;-80
2024/02/25 08:34:34;;;;;;;;;;;;;;;;;;7422929;19;19943;-80
2024/02/25 08:37:18;;;;;;;5.03;3.15;;;;;;;;;;7417584;19;19919;-80
2024/02/25 08:40:05;;;;;;;4.03;2.42;;;;;;;;;;7419222;19;19925;-80
2024/02/25 08:42:52;;;;;;;3.58;2.53;;;;;;;;;;7418454;19;19914;-80
2024/02/25 08:45:41;;;;;;;6.90;4.63;;;;;;;;;;7418020;19;19918;-80
2024/02/25 08:48:25;;;;;;;7.82;4.75;;;;;;;;;;7422152;19;19914;-80
2024/02/25 08:51:12;;;;;;;6.35;4.15;;;;;;;;;;7416132;19;19910;-81
2024/02/25 08:53:59;;;;;;;6.07;3.88;;;;;;;;;;7418901;19;19915;-81
2024/02/25 08:56:43;;;;;;;5.45;3.70;;;;;;;;;;7415862;19;19919;-81
2024/02/25 08:59:30;;;;;;;5.32;3.50;;;;;;;;;;7418564;19;19910;-81
2024/02/25 09:02:19;;;;;;;7.03;3.58;;;;;;;;;;7415991;19;19926;-81
2024/02/25 09:05:07;;;;;;;7.57;3.80;;;;;;;;;;7417886;19;19915;-81
2024/02/25 09:07:54;;;;;;;8.18;3.85;;;;;;;;;;7415163;19;19936;-81
2024/02/25 09:10:38;;;;;;;5.35;3.38;;;;;;;;;;7418917;19;19926;-81
2024/02/25 09:13:25;;;;;;;4.93;2.85;;;;;;;;;;7415921;19;19922;-81
2024/02/25 09:16:12;;;;;;;3.78;2.50;;;;;;;;;;7416307;19;19925;-81
2024/02/25 09:18:59;;;;;;;4.05;1.98;;;;;;;;;;7420704;19;19922;-80
2024/02/25 09:21:47;;;;;;;4.55;2.10;;;;;;;;;;7420055;19;19914;-80
2024/02/25 09:24:31;;;;;;;3.15;1.88;;;;;;;;;;7419519;19;19922;-80
2024/02/25 09:27:15;;;;;;;4.20;2.20;;;;;;;;;;7416995;19;19927;-80
2024/02/25 09:30:01;;;;;;;4.43;2.15;;;;;;;;;;7417754;19;19941;-80
2024/02/25 09:32:46;;;;;;;7.13;3.10;;;;;;;;;;7416699;19;19915;-80
2024/02/25 09:35:35;;;;;;;3.42;2.15;;;;;;;;;;7422551;19;19915;-80
2024/02/25 09:38:22;;;;;;;3.00;1.90;;;;;;;;;;7417956;19;19919;-80
2024/02/25 09:41:08;;;;;;;2.80;1.85;;;;;;;;;;7418643;19;19919;-80
2024/02/25 09:43:53;;;;;;;4.13;1.23;;;;;;;;;;7421345;19;19926;-80
2024/02/25 09:46:37;;;;;;;2.90;1.40;;;;;;;;;;7421809;19;19923;-81
2024/02/25 09:49:28;;;;;;;1.85;1.20;;;;;;;;;;7410563;19;19914;-81
2024/02/25 09:52:17;;;;;;;1.70;1.30;;;;;;;;;;7409652;19;19951;-81
2024/02/25 09:55:08;;;;;;;1.92;1.30;;;;;;;;;;7410506;19;19918;-81
2024/02/25 09:57:53;;;;;;;2.00;1.20;;;;;;;;;;7409096;19;19918;-81
2024/02/25 10:00:38;;;;;;;2.33;1.30;;;;;;;;;;7405635;19;19926;-81
2024/02/25 10:03:27;;;;;;;4.03;1.45;;;;;;;;;;7407199;19;19922;-81
2024/02/25 10:06:12;;;;;;;2.00;1.00;;;;;;;;;;7409323;19;19914;-81
2024/02/25 10:08:59;;;;;;;2.63;1.50;;;;;;;;;;7407768;19;19914;-82
2024/02/25 10:11:45;;;;;;;2.97;1.10;;;;;;;;;;7410206;19;19944;-82
2024/02/25 10:14:32;;;;;;;0.90;0.60;;;;;;;;;;7409926;19;19911;-82
2024/02/25 10:17:17;;;;;;;2.60;1.20;;;;;;;;;;7408603;19;19974;-81
2024/02/25 10:20:06;;;;;;;2.58;1.10;;;;;;;;;;7407766;19;19919;-81
2024/02/25 10:23:07;;;;;;;1.52;0.80;;;;;;;;;;7405920;19;19926;-81
2024/02/25 10:25:54;;;;;;;2.40;0.95;;;;;;;;;;7411336;19;20335;-81
2024/02/25 10:28:44;;;;;;;1.17;0.70;;;;;;;;;;7409879;19;19922;-81
2024/02/25 10:31:31;;;;;;;2.22;0.80;;;;;;;;;;7406650;19;20333;-81
2024/02/25 10:34:20;;;;;;;2.03;1.10;;;;;;;;;;7411303;19;19978;-81
2024/02/25 10:37:07;;;;;;;1.50;0.80;;;;;;;;;;7408158;19;19926;-81
2024/02/25 10:39:55;;;;;;;1.73;0.75;;;;;;;;;;7410041;19;19923;-81
2024/02/25 10:42:46;;;;;;;1.52;0.52;;;;;;;;;;7407145;19;19941;-81
2024/02/25 10:45:33;;;;;;;1.00;0.60;;;;;;;;;;7407402;19;19922;-81
2024/02/25 10:48:24;;;;;;;3.17;1.35;;;;;;;;;;7404784;19;19919;-81
2024/02/25 10:51:13;;;;;;;1.10;0.85;;;;;;;;;;7406126;19;19918;-81
2024/02/25 10:54:04;;;;;;;1.88;0.70;;;;;;;;;;7409116;19;19936;-81
2024/02/25 10:56:49;;;;;;;2.40;0.50;;;;;;;;;;7408785;19;20369;-81
2024/02/25 10:59:39;;;;;;;1.08;0.70;;;;;;;;;;7408290;19;19914;-82
2024/02/25 11:02:26;;;;;;;2.03;1.10;;;;;;;;;;7403769;19;19926;-82
2024/02/25 11:05:17;;;;;;;2.20;1.33;;;;;;;;;;7408025;19;19915;-82
2024/02/25 11:08:03;;;;;;;1.38;0.70;;;;;;;;;;7405834;19;20270;-82
2024/02/25 11:10:50;;;;;;;2.88;1.33;;;;;;;;;;7409140;19;19923;-82
2024/02/25 11:13:37;;;;;;;1.30;0.60;;;;;;;;;;7407362;19;19941;-81
2024/02/25 11:16:39;;;;;;;1.83;0.63;;;;;;;;;;7412253;19;19914;-81
2024/02/25 11:19:29;;;;;;;1.45;0.50;;;;;;;;;;7412390;19;20342;-81
2024/02/25 11:22:15;;;;;;;1.15;0.60;;;;;;;;;;7414713;19;19981;-81
2024/02/25 11:25:02;;;;;;;1.45;0.60;;;;;;;;;;7413741;19;19911;-81
2024/02/25 11:27:58;;;;;;;0.43;0.25;;;;;;;;;;7410848;19;19926;-81
2024/02/25 11:30:45;;;;;;;0.40;0.32;;;;;;;;;;7414963;19;19919;-81
2024/02/25 11:33:42;;;;;;;0.82;0.32;;;;;;;;;;7413296;19;19918;-81
2024/02/25 11:36:27;;;;;;;0.45;0.30;;;;;;;;;;7414328;19;19923;-81
2024/02/25 11:39:13;;;;;;;1.15;0.40;;;;;;;;;;7414097;19;20321;-82
2024/02/25 11:42:04;;;;;;;0.75;0.45;;;;;;;;;;7413183;19;19910;-82
2024/02/25 11:44:53;;;;;;;1.33;0.32;;;;;;;;;;7411404;19;19930;-82
2024/02/25 11:47:40;;;;;;;0.80;0.35;;;;;;;;;;7411398;19;19922;-82
2024/02/25 11:50:29;;;;;;;1.02;0.32;;;;;;;;;;7409454;19;19929;-81
2024/02/25 11:53:13;;;;;;;1.65;0.80;;;;;;;;;;7414008;19;19926;-81
2024/02/25 11:55:59;;;;;;;0.77;0.50;;;;;;;;;;7415664;19;19922;-81
2024/02/25 11:58:43;;;;;;;1.23;0.50;;;;;;;;;;7414056;19;19919;-81
2024/02/25 12:01:30;;;;;;;0.93;0.30;;;;;;;;;;7416274;19;19915;-81
2024/02/25 12:04:18;;;;;;;1.75;1.10;;;;;;;;;;7414912;19;19925;-81
2024/02/25 12:07:07;;;;;;;0.60;0.50;;;;;;;;;;7413852;19;19915;-81
2024/02/25 12:09:59;;;;;;;0.77;0.38;;;;;;;;;;7416430;19;19919;-81
2024/02/25 12:12:46;;;;;;;2.58;1.40;;;;;;;;;;7411042;19;20329;-81
2024/02/25 12:15:33;;;;;;;2.72;0.80;;;;;;;;;;7413588;19;20337;-81
2024/02/25 12:18:18;;;;;;;4.80;2.33;;;;;;;;;;7412575;19;19914;-81
2024/02/25 12:21:07;;;;;;;2.38;1.17;;;;;;;;;;7416630;19;19937;-81
2024/02/25 12:23:57;;;;;;;1.23;1.00;;;;;;;;;;7413812;19;20306;-80
2024/02/25 12:26:53;;;;;;;0.43;0.30;;;;;;;;;;7412251;19;19940;-80
2024/02/25 12:29:42;;;;;;;2.22;1.40;;;;;;;;;;7413246;19;19919;-80
2024/02/25 12:32:27;;;;;;;1.40;0.52;;;;;;;;;;7414156;19;19944;-81
2024/02/25 12:35:11;;;;;;;1.98;0.50;;;;;;;;;;7418076;19;19958;-80
2024/02/25 12:37:56;;;;;;;1.25;0.80;;;;;;;;;;7415070;19;19918;-80
2024/02/25 12:40:45;;;;;;;0.80;0.52;;;;;;;;;;7413658;19;19911;-80
2024/02/25 12:43:29;;;;;;;0.70;0.40;;;;;;;;;;7414568;19;20013;-80
2024/02/25 12:46:13;;;;;;;0.55;0.40;;;;;;;;;;7415254;19;19974;-81
2024/02/25 12:49:00;;;;;;;1.75;0.73;;;;;;;;;;7413266;19;19943;-80
2024/02/25 12:51:47;;;;;;;1.20;0.88;;;;;;;;;;7412814;19;19910;-80
2024/02/25 12:54:31;;;;;;;0.50;0.30;;;;;;;;;;7416162;19;19918;-80
2024/02/25 12:57:18;;;;;;;0.80;0.60;;;;;;;;;;7411298;19;19915;-80
2024/02/25 13:00:03;;;;;;;1.40;0.98;;;;;;;;;;7414913;19;19923;-80
2024/02/25 13:02:49;;;;;;;3.13;1.23;;;;;;;;;;7410637;19;19914;-80
2024/02/25 13:05:35;;;;;;;0.95;0.50;;;;;;;;;;7414620;19;20015;-79
2024/02/25 13:08:22;;;;;;;0.32;0.20;;;;;;;;;;7407710;19;19925;-81
2024/02/25 13:11:07;;;;;;;0.60;0.30;;;;;;;;;;7409937;19;20037;-81
2024/02/25 13:13:54;;;;;;;0.30;0.20;;;;;;;;;;7414160;19;19939;-81
2024/02/25 13:19:47;;;;;;;1.77;0.90;;;;;;;;;;7406735;19;19925;-80
2024/02/25 13:22:34;;;;;;;1.40;0.98;;;;;;;;;;7403417;19;19925;-80
2024/02/25 13:25:19;;;;;;;1.58;1.17;;;;;;;;;;7408732;19;19947;-80
2024/02/25 13:28:05;;;;;;;1.40;0.90;;;;;;;;;;7407079;19;19966;-80
2024/02/25 13:30:55;;;;;;;1.40;0.70;;;;;;;;;;7408432;19;19914;-80
2024/02/25 13:33:42;;;;;;;0.75;0.20;;;;;;;;;;7406089;19;19915;-81
2024/02/25 13:36:32;;;;;;;1.42;0.45;;;;;;;;;;7409348;19;19923;-81
2024/02/25 13:39:18;;;;;;;1.65;0.57;;;;;;;;;;7406801;19;20338;-81
2024/02/25 13:42:05;;;;;;;0.35;0.10;;;;;;;;;;7412918;19;19931;-81
2024/02/25 13:44:52;;;;;;;0.80;0.10;;;;;;;;;;7413291;19;19926;-80
2024/02/25 13:47:43;;;;;;;4.97;1.23;;;;;;;;;;7413593;19;19915;-83
2024/02/25 13:50:30;;;;;;;1.20;0.80;;;;;;;;;;7414686;19;19914;-81
2024/02/25 13:53:14;;;;;;;0.20;0.20;;;;;;;;;;7408854;19;19914;-81
2024/02/25 13:56:00;;;;;;;1.00;0.30;;;;;;;;;;7413774;19;19934;-82
2024/02/25 13:58:48;;;;;;;0.57;0.20;;;;;;;;;;7412336;19;19918;-81
2024/02/25 14:01:35;;;;;;;0.45;0.20;;;;;;;;;;7409520;19;19937;-81
2024/02/25 14:04:23;;;;;;;1.27;0.20;;;;;;;;;;7410550;19;19918;-81
2024/02/25 14:07:09;;;;;;;0.45;0.20;;;;;;;;;;7412819;19;20018;-81
2024/02/25 14:09:57;;;;;;;0.80;0.30;;;;;;;;;;7412878;19;19940;-81
2024/02/25 14:12:41;;;;;;;2.20;0.20;;;;;;;;;;7410562;19;20402;-80
2024/02/25 14:15:26;;;;;;;1.17;0.30;;;;;;;;;;7412433;19;19919;-80
2024/02/25 14:18:10;;;;;;;1.17;1.00;;;;;;;;;;7412207;19;19914;-79
2024/02/25 14:21:02;;;;;;;0.80;0.70;;;;;;;;;;7409284;19;19919;-79
2024/02/25 14:23:56;;;;;;;0.47;0.30;;;;;;;;;;7413099;19;19966;-79
2024/02/25 14:26:41;;;;;;;2.42;1.50;;;;;;;;;;7411189;19;19922;-79
2024/02/25 14:29:25;;;;;;;0.57;0.20;;;;;;;;;;7411392;19;20223;-79
2024/02/25 14:32:10;;;;;;;2.08;0.40;;;;;;;;;;7410303;19;20362;-79
2024/02/25 14:34:59;;;;;;;0.32;0.30;;;;;;;;;;7409736;19;19950;-79
2024/02/25 14:37:48;;;;;;;2.20;1.55;;;;;;;;;;7409602;19;20337;-79
2024/02/25 14:40:32;;;;;;;0.88;0.60;;;;;;;;;;7407677;19;19974;-79
2024/02/25 14:43:17;;;;;;;3.20;2.47;;;;;;;;;;7408713;19;19950;-79
2024/02/25 14:46:07;;;;;;;0.93;0.60;;;;;;;;;;7410454;19;20020;-79
2024/02/25 14:48:58;;;;;;;0.30;0.30;;;;;;;;;;7412290;19;19917;-79
2024/02/25 14:51:42;;;;;;;0.68;0.57;;;;;;;;;;7416861;19;19974;-79
2024/02/25 14:54:29;;;;;;;0.63;0.30;;;;;;;;;;7418543;19;19915;-80
2024/02/25 14:57:13;;;;;;;0.52;0.20;;;;;;;;;;7415332;19;20425;-80
2024/02/25 15:00:00;;;;;;;1.25;0.30;;;;;;;;;;7417072;19;19947;-80
2024/02/25 15:02:45;;;;;;;0.20;0.20;;;;;;;;;;7415714;19;19926;-80
2024/02/25 15:05:31;;;;;;;0.30;0.20;;;;;;;;;;7417952;19;19959;-80
2024/02/25 15:08:20;;;;;;;5.97;0.30;;;;;;;;;;7415134;19;20348;-80
2024/02/25 15:11:07;;;;;;;0.68;0.30;;;;;;;;;;7416753;19;19929;-80
2024/02/25 15:13:54;;;;;;;1.17;0.40;;;;;;;;;;7418400;19;19922;-80
2024/02/25 15:16:43;;;;;;;1.40;0.35;;;;;;;;;;7414277;19;20008;-80
2024/02/25 15:19:30;;;;;;;0.65;0.20;;;;;;;;;;7412337;19;19967;-80
2024/02/25 15:22:19;;;;;;;0.30;0.17;;;;;;;;;;7416713;19;19918;-80
2024/02/25 15:25:09;;;;;;;0.28;0.10;;;;;;;;;;7416243;19;19918;-80
2024/02/25 15:27:58;;;;;;;0.57;0.40;;;;;;;;;;7410536;19;19922;-80
2024/02/25 15:30:48;;;;;;;0.40;0.40;;;;;;;;;;7415783;19;19915;-80
2024/02/25 15:33:32;;;;;;;0.35;0.20;;;;;;;;;;7414034;19;19918;-80
2024/02/25 15:36:19;;;;;;;2.00;0.40;;;;;;;;;;7414824;19;19935;-80
2024/02/25 15:39:06;;;;;;;0.88;0.32;;;;;;;;;;7413593;19;19914;-80
2024/02/25 15:41:55;;;;;;;0.65;0.40;;;;;;;;;;7415686;19;19911;-80
2024/02/25 15:44:44;;;;;;;0.50;0.30;;;;;;;;;;7415404;19;19922;-80
2024/02/25 15:47:28;;;;;;;1.20;0.40;;;;;;;;;;7403775;19;20242;-80
2024/02/25 15:50:15;;;;;;;2.65;0.43;;;;;;;;;;7412991;19;19923;-80
2024/02/25 15:53:02;;;;;;;0.65;0.28;;;;;;;;;;7411915;19;19922;-80
2024/02/25 15:55:47;;;;;;;1.92;0.80;;;;;;;;;;7414102;19;19929;-80
2024/02/25 15:58:36;;;;;;;0.88;0.50;;;;;;;;;;7413402;19;19914;-80
2024/02/25 16:01:23;;;;;;;0.50;0.30;;;;;;;;;;7411947;19;19910;-80
2024/02/25 16:04:08;;;;;;;0.52;0.40;;;;;;;;;;7416946;19;20368;-80
2024/02/25 16:06:57;;;;;;;0.10;0.10;;;;;;;;;;7414249;19;19918;-80
2024/02/25 16:09:44;;;;;;;0.50;0.15;;;;;;;;;;7414216;19;19950;-80
2024/02/25 16:12:29;;;;;;;0.10;0.10;;;;;;;;;;7413357;19;19918;-80
2024/02/25 16:15:13;;;;;;;0.82;0.30;;;;;;;;;;7411463;19;19918;-80
2024/02/25 16:18:01;;;;;;;0.22;0.15;;;;;;;;;;7409611;19;19922;-80
2024/02/25 16:20:45;;;;;;;0.68;0.30;;;;;;;;;;7408797;19;19925;-80
2024/02/25 16:23:32;;;;;;;0.20;0.20;;;;;;;;;;7411534;19;19935;-80
2024/02/25 16:26:22;;;;;;;0.20;0.20;;;;;;;;;;7417017;19;19922;-80
2024/02/25 16:29:07;;;;;;;0.85;0.25;;;;;;;;;;7416494;19;19914;-80
2024/02/25 16:31:51;;;;;;;1.17;0.63;;;;;;;;;;7418433;19;20297;-80
2024/02/25 16:34:38;;;;;;;0.32;0.20;;;;;;;;;;7417705;19;19935;-80
2024/02/25 16:37:24;;;;;;;0.43;0.20;;;;;;;;;;7417134;19;19922;-80
2024/02/25 16:40:11;;;;;;;0.65;0.28;;;;;;;;;;7413988;19;20246;-80
2024/02/25 16:42:56;;;;;;;0.30;0.20;;;;;;;;;;7413782;19;19962;-80
2024/02/25 16:45:46;;;;;;;0.35;0.20;;;;;;;;;;7413298;19;19914;-80
2024/02/25 16:48:33;;;;;;;0.63;0.30;;;;;;;;;;7412414;19;19914;-80